createdAt,value
2017-12-29T00:01:12.179Z,1.20
2017-12-29T00:03:39.691Z,1.40
2017-12-29T00:06:07.239Z,1.30
2017-12-29T00:08:34.766Z,1.30
2017-12-29T00:11:03.236Z,1.40
2017-12-29T00:13:31.542Z,1.70
2017-12-29T00:15:59.074Z,1.60
2017-12-29T00:18:27.378Z,1.70
2017-12-29T00:20:54.901Z,1.70
2017-12-29T00:23:23.214Z,1.70
2017-12-29T00:25:50.739Z,1.60
2017-12-29T00:28:19.036Z,1.40
2017-12-29T00:30:46.605Z,1.40
2017-12-29T00:33:14.121Z,1.40
2017-12-29T00:35:41.675Z,1.40
2017-12-29T00:38:09.198Z,1.20
2017-12-29T00:40:36.755Z,0.90
2017-12-29T00:43:04.274Z,0.70
2017-12-29T00:45:32.558Z,1.10
2017-12-29T00:48:00.149Z,1.10
2017-12-29T00:50:27.648Z,1.30
2017-12-29T00:52:55.966Z,1.40
2017-12-29T00:55:23.486Z,1.30
2017-12-29T00:57:51.038Z,1.40
2017-12-29T01:00:19.322Z,1.50
2017-12-29T01:02:47.619Z,1.50
2017-12-29T01:05:15.182Z,1.40
2017-12-29T01:07:42.703Z,1.50
2017-12-29T01:10:10.278Z,1.20
2017-12-29T01:12:37.822Z,1.30
2017-12-29T01:15:06.271Z,1.40
2017-12-29T01:17:33.827Z,1.40
2017-12-29T01:20:02.343Z,1.20
2017-12-29T01:22:29.894Z,1.20
2017-12-29T01:24:57.414Z,1.10
2017-12-29T01:27:24.945Z,1.20
2017-12-29T01:29:52.537Z,1.30
2017-12-29T01:32:20.087Z,1.30
2017-12-29T01:34:47.634Z,1.20
2017-12-29T01:37:16.111Z,1.10
2017-12-29T01:39:43.662Z,1.00
2017-12-29T01:42:11.957Z,0.80
2017-12-29T01:44:39.482Z,0.80
2017-12-29T01:47:07.026Z,0.70
2017-12-29T01:49:34.549Z,0.90
2017-12-29T01:52:02.109Z,0.70
2017-12-29T01:54:29.630Z,0.30
2017-12-29T01:56:57.160Z,0.20
2017-12-29T01:59:24.722Z,0.10
2017-12-29T02:01:52.240Z,0.00
2017-12-29T02:04:19.807Z,0.40
2017-12-29T02:06:47.339Z,0.60
2017-12-29T02:09:14.858Z,0.80
2017-12-29T02:11:42.414Z,0.80
2017-12-29T02:14:11.122Z,0.80
2017-12-29T02:16:39.430Z,0.70
2017-12-29T02:19:07.064Z,0.70
2017-12-29T02:21:34.620Z,0.50
2017-12-29T02:24:02.173Z,0.80
2017-12-29T02:26:29.685Z,1.00
2017-12-29T02:28:59.167Z,1.10
2017-12-29T02:31:26.694Z,1.10
2017-12-29T02:33:55.007Z,1.10
2017-12-29T02:36:22.547Z,1.00
2017-12-29T02:38:50.106Z,1.00
2017-12-29T02:41:17.626Z,1.10
2017-12-29T02:43:45.154Z,1.10
2017-12-29T02:46:12.713Z,1.00
2017-12-29T02:48:41.186Z,1.10
2017-12-29T02:51:08.942Z,1.20
2017-12-29T02:53:36.466Z,1.30
2017-12-29T02:56:04.750Z,1.20
2017-12-29T02:58:32.307Z,1.20
2017-12-29T03:00:59.843Z,1.20
2017-12-29T03:03:27.398Z,1.10
2017-12-29T03:05:54.911Z,1.10
2017-12-29T03:08:22.462Z,1.10
2017-12-29T03:10:49.981Z,0.70
2017-12-29T03:13:18.275Z,0.50
2017-12-29T03:15:46.591Z,0.40
2017-12-29T03:18:14.111Z,0.40
2017-12-29T03:20:41.650Z,0.40
2017-12-29T03:23:09.939Z,0.40
2017-12-29T03:25:38.261Z,0.50
2017-12-29T03:28:05.792Z,0.40
2017-12-29T03:30:33.342Z,0.40
2017-12-29T03:33:00.874Z,0.40
2017-12-29T03:35:29.163Z,0.60
2017-12-29T03:37:57.474Z,0.60
2017-12-29T03:40:25.058Z,0.60
2017-12-29T03:42:52.770Z,0.60
2017-12-29T03:45:22.150Z,0.80
2017-12-29T03:47:49.671Z,0.90
2017-12-29T03:50:19.138Z,0.70
2017-12-29T03:52:46.673Z,0.60
2017-12-29T03:55:14.367Z,0.60
2017-12-29T03:57:41.891Z,0.50
2017-12-29T04:00:09.807Z,0.70
2017-12-29T04:02:37.326Z,0.80
2017-12-29T04:05:04.898Z,0.70
2017-12-29T04:07:33.206Z,0.40
2017-12-29T04:10:00.729Z,0.40
2017-12-29T04:12:30.979Z,0.30
2017-12-29T04:14:58.496Z,0.20
2017-12-29T04:17:26.044Z,0.10
2017-12-29T04:19:53.557Z,0.00
2017-12-29T04:22:21.072Z,0.00
2017-12-29T04:24:50.627Z,-0.10
2017-12-29T04:27:18.143Z,-0.10
2017-12-29T04:29:48.400Z,0.00
2017-12-29T04:32:15.922Z,-0.10
2017-12-29T04:34:43.442Z,-0.10
2017-12-29T04:37:12.907Z,0.00
2017-12-29T04:39:40.435Z,0.00
2017-12-29T04:42:07.984Z,0.00
2017-12-29T04:44:35.507Z,-0.10
2017-12-29T04:47:03.986Z,-0.10
2017-12-29T04:49:31.534Z,-0.30
2017-12-29T04:51:59.074Z,-0.40
2017-12-29T04:54:26.620Z,-0.50
2017-12-29T04:56:54.262Z,-0.50
2017-12-29T04:59:21.782Z,-0.50
2017-12-29T05:01:49.327Z,-0.50
2017-12-29T05:04:16.858Z,-0.50
2017-12-29T05:06:44.398Z,-0.70
2017-12-29T05:09:11.918Z,-0.90
2017-12-29T05:11:39.470Z,-0.90
2017-12-29T05:14:06.993Z,-0.70
2017-12-29T05:16:35.283Z,-0.50
2017-12-29T05:19:02.831Z,-0.50
2017-12-29T05:21:31.118Z,-0.50
2017-12-29T05:23:58.667Z,-0.60
2017-12-29T05:26:26.954Z,-0.90
2017-12-29T05:28:54.732Z,-0.90
2017-12-29T05:31:23.215Z,-0.90
2017-12-29T05:33:50.738Z,-0.70
2017-12-29T05:36:18.283Z,-0.70
2017-12-29T05:38:45.806Z,-0.60
2017-12-29T05:41:14.206Z,-0.70
2017-12-29T05:43:41.739Z,-0.60
2017-12-29T05:46:09.274Z,-0.70
2017-12-29T05:48:36.826Z,-0.80
2017-12-29T05:51:04.357Z,-0.70
2017-12-29T05:53:31.917Z,-0.60
2017-12-29T05:55:59.438Z,-0.50
2017-12-29T05:58:26.967Z,-0.40
2017-12-29T06:00:54.506Z,-0.50
2017-12-29T06:03:22.798Z,-0.60
2017-12-29T06:05:50.347Z,-0.60
2017-12-29T06:08:17.866Z,-0.60
2017-12-29T06:10:45.420Z,-0.90
2017-12-29T06:13:12.972Z,-0.60
2017-12-29T06:15:40.536Z,-0.50
2017-12-29T06:18:08.098Z,-0.30
2017-12-29T06:20:35.626Z,-0.20
2017-12-29T06:23:03.174Z,-0.20
2017-12-29T06:25:30.703Z,-0.20
2017-12-29T06:27:58.246Z,-0.20
2017-12-29T06:30:26.765Z,-0.30
2017-12-29T06:32:54.286Z,-0.50
2017-12-29T06:35:21.842Z,-0.40
2017-12-29T06:37:49.367Z,-0.40
2017-12-29T06:40:16.951Z,-0.50
2017-12-29T06:42:44.491Z,-0.70
2017-12-29T06:45:12.031Z,-0.60
2017-12-29T06:47:39.585Z,-0.70
2017-12-29T06:50:07.111Z,-0.70
2017-12-29T06:52:35.435Z,-0.80
2017-12-29T06:55:02.970Z,-0.80
2017-12-29T06:57:31.451Z,-1.00
2017-12-29T07:00:01.006Z,-0.90
2017-12-29T07:02:28.534Z,-0.70
2017-12-29T07:04:56.083Z,-0.60
2017-12-29T07:07:23.612Z,-0.40
2017-12-29T07:09:51.135Z,-0.40
2017-12-29T07:12:18.687Z,-0.40
2017-12-29T07:14:46.211Z,-0.40
2017-12-29T07:17:13.763Z,-0.40
2017-12-29T07:19:41.294Z,-0.40
2017-12-29T07:22:08.822Z,-0.30
2017-12-29T07:24:36.383Z,-0.30
2017-12-29T07:27:03.903Z,-0.50
2017-12-29T07:29:31.451Z,-0.70
2017-12-29T07:32:00.719Z,-0.60
2017-12-29T07:34:28.250Z,-0.60
2017-12-29T07:36:55.818Z,-0.50
2017-12-29T07:39:23.351Z,-0.80
2017-12-29T07:41:51.059Z,-0.70
2017-12-29T07:44:18.586Z,-0.80
2017-12-29T07:46:46.146Z,-0.70
2017-12-29T07:49:13.684Z,-0.70
2017-12-29T07:51:41.208Z,-0.70
2017-12-29T07:54:08.758Z,-0.70
2017-12-29T07:56:36.282Z,-0.90
2017-12-29T07:59:03.838Z,-0.80
2017-12-29T08:01:31.370Z,-0.90
2017-12-29T08:03:58.894Z,-0.80
2017-12-29T08:06:26.457Z,-0.90
2017-12-29T08:08:55.714Z,-0.90
2017-12-29T08:11:23.280Z,-0.90
2017-12-29T08:13:50.812Z,-1.00
2017-12-29T08:16:18.374Z,-1.00
2017-12-29T08:18:45.902Z,-0.90
2017-12-29T08:21:14.190Z,-0.80
2017-12-29T08:23:41.746Z,-0.80
2017-12-29T08:26:09.424Z,-0.90
2017-12-29T08:28:36.986Z,-0.90
2017-12-29T08:31:04.530Z,-1.10
2017-12-29T08:33:32.126Z,-0.90
2017-12-29T08:36:00.608Z,-0.90
2017-12-29T08:38:28.143Z,-0.70
2017-12-29T08:40:56.903Z,-0.60
2017-12-29T08:43:24.432Z,-0.60
2017-12-29T08:45:52.006Z,-0.60
2017-12-29T08:48:19.531Z,-0.60
2017-12-29T08:50:47.860Z,-1.30
2017-12-29T08:53:15.415Z,-1.30
2017-12-29T08:55:42.939Z,-0.90
2017-12-29T08:58:10.500Z,-0.50
2017-12-29T09:00:38.031Z,-0.20
2017-12-29T09:03:05.573Z,0.00
2017-12-29T09:05:33.118Z,0.10
2017-12-29T09:08:00.643Z,0.10
2017-12-29T09:10:29.185Z,0.30
2017-12-29T09:12:56.717Z,0.60
2017-12-29T09:15:24.274Z,0.70
2017-12-29T09:17:51.862Z,0.60
2017-12-29T09:20:19.407Z,0.70
2017-12-29T09:22:46.962Z,0.70
2017-12-29T09:25:14.520Z,0.70
2017-12-29T09:27:42.050Z,0.60
2017-12-29T09:30:09.598Z,0.70
2017-12-29T09:32:38.123Z,0.90
2017-12-29T09:35:06.304Z,1.00
2017-12-29T09:37:33.863Z,0.90
2017-12-29T09:40:01.434Z,1.00
2017-12-29T09:42:29.914Z,1.10
2017-12-29T09:44:57.441Z,1.40
2017-12-29T09:47:25.004Z,1.50
2017-12-29T09:49:52.524Z,1.50
2017-12-29T09:52:20.086Z,1.60
2017-12-29T09:54:47.606Z,1.70
2017-12-29T09:57:15.154Z,1.60
2017-12-29T09:59:42.689Z,1.70
2017-12-29T10:02:10.210Z,1.90
2017-12-29T10:04:38.536Z,2.00
2017-12-29T10:07:06.059Z,2.00
2017-12-29T10:09:34.367Z,2.10
2017-12-29T10:12:01.913Z,2.10
2017-12-29T10:14:31.427Z,2.20
2017-12-29T10:16:58.953Z,2.10
2017-12-29T10:19:26.514Z,2.30
2017-12-29T10:21:54.059Z,2.30
2017-12-29T10:24:21.574Z,2.40
2017-12-29T10:26:50.049Z,2.20
2017-12-29T10:29:17.570Z,2.00
2017-12-29T10:31:45.897Z,2.20
2017-12-29T10:34:13.427Z,2.20
2017-12-29T10:36:41.723Z,2.50
2017-12-29T10:39:09.269Z,2.60
2017-12-29T10:41:37.734Z,2.40
2017-12-29T10:44:08.023Z,2.30
2017-12-29T10:46:35.539Z,2.20
2017-12-29T10:49:03.095Z,2.40
2017-12-29T10:51:30.621Z,2.40
2017-12-29T10:53:58.906Z,2.80
2017-12-29T10:56:26.456Z,2.80
2017-12-29T10:58:53.983Z,3.00
2017-12-29T11:01:21.527Z,3.20
2017-12-29T11:03:49.094Z,3.10
2017-12-29T11:06:16.648Z,2.90
2017-12-29T11:08:44.198Z,2.90
2017-12-29T11:11:11.720Z,2.90
2017-12-29T11:13:40.024Z,2.50
2017-12-29T11:16:07.546Z,2.50
2017-12-29T11:18:37.023Z,2.50
2017-12-29T11:21:04.547Z,2.80
2017-12-29T11:23:32.073Z,3.00
2017-12-29T11:26:01.626Z,3.10
2017-12-29T11:28:29.146Z,3.10
2017-12-29T11:30:57.518Z,3.20
2017-12-29T11:33:25.036Z,3.20
2017-12-29T11:35:52.563Z,3.30
2017-12-29T11:38:20.108Z,3.40
2017-12-29T11:40:47.657Z,3.50
2017-12-29T11:43:17.991Z,3.30
2017-12-29T11:45:45.516Z,3.20
2017-12-29T11:48:13.041Z,3.50
2017-12-29T11:50:40.591Z,3.60
2017-12-29T11:53:08.105Z,3.70
2017-12-29T11:55:36.414Z,4.00
2017-12-29T11:58:03.987Z,3.90
2017-12-29T12:00:31.549Z,4.00
2017-12-29T12:02:59.071Z,4.00
2017-12-29T12:05:27.358Z,3.70
2017-12-29T12:07:55.862Z,3.70
2017-12-29T12:10:23.377Z,3.60
2017-12-29T12:12:50.945Z,3.70
2017-12-29T12:15:18.459Z,3.70
2017-12-29T12:17:46.008Z,3.90
2017-12-29T12:20:13.519Z,3.60
2017-12-29T12:22:42.001Z,3.80
2017-12-29T12:25:09.558Z,3.90
2017-12-29T12:27:37.078Z,4.00
2017-12-29T12:30:04.646Z,4.00
2017-12-29T12:32:33.131Z,3.70
2017-12-29T12:35:00.898Z,3.70
2017-12-29T12:37:28.417Z,3.80
2017-12-29T12:39:55.958Z,3.70
2017-12-29T12:42:23.490Z,3.60
2017-12-29T12:44:51.986Z,3.80
2017-12-29T12:47:19.537Z,3.90
2017-12-29T12:49:47.070Z,3.90
2017-12-29T12:52:14.642Z,3.80
2017-12-29T12:54:42.160Z,4.00
2017-12-29T12:57:09.718Z,4.00
2017-12-29T12:59:37.235Z,4.10
2017-12-29T13:02:04.786Z,4.30
2017-12-29T13:04:33.068Z,4.40
2017-12-29T13:07:00.727Z,4.30
2017-12-29T13:09:28.246Z,4.40
2017-12-29T13:11:55.765Z,4.40
2017-12-29T13:14:23.318Z,4.40
2017-12-29T13:16:51.386Z,4.40
2017-12-29T13:19:18.927Z,4.40
2017-12-29T13:21:46.458Z,4.30
2017-12-29T13:24:14.005Z,4.30
2017-12-29T13:26:41.602Z,4.40
2017-12-29T13:29:09.134Z,4.40
2017-12-29T13:31:36.648Z,4.40
2017-12-29T13:34:06.139Z,4.40
2017-12-29T13:36:34.637Z,4.40
2017-12-29T13:39:02.187Z,4.30
2017-12-29T13:41:29.705Z,4.30
2017-12-29T13:43:57.245Z,4.20
2017-12-29T13:46:24.796Z,4.00
2017-12-29T13:48:52.307Z,3.90
2017-12-29T13:51:19.871Z,3.90
2017-12-29T13:53:47.396Z,3.90
2017-12-29T13:56:14.921Z,3.80
2017-12-29T13:58:42.478Z,3.70
2017-12-29T14:01:10.007Z,3.70
2017-12-29T14:03:37.555Z,3.60
2017-12-29T14:06:05.074Z,3.50
2017-12-29T14:08:34.552Z,3.60
2017-12-29T14:11:02.095Z,3.60
2017-12-29T14:13:29.634Z,3.60
2017-12-29T14:15:57.159Z,3.60
2017-12-29T14:18:24.702Z,3.60
2017-12-29T14:20:53.201Z,3.70
2017-12-29T14:23:20.712Z,3.70
2017-12-29T14:25:48.259Z,3.60
2017-12-29T14:28:15.771Z,3.60
2017-12-29T14:30:43.315Z,3.40
2017-12-29T14:33:10.830Z,3.50
2017-12-29T14:35:38.387Z,3.50
2017-12-29T14:38:05.910Z,3.50
2017-12-29T14:40:33.454Z,3.60
2017-12-29T14:43:00.976Z,3.70
2017-12-29T14:45:28.526Z,3.80
2017-12-29T14:47:56.052Z,3.90
2017-12-29T14:50:25.326Z,4.30
2017-12-29T14:52:52.899Z,4.20
2017-12-29T14:55:20.423Z,4.30
2017-12-29T14:57:47.979Z,4.20
2017-12-29T15:00:16.836Z,4.20
2017-12-29T15:02:44.387Z,4.30
2017-12-29T15:05:11.911Z,4.40
2017-12-29T15:07:39.455Z,4.60
2017-12-29T15:10:06.971Z,4.60
2017-12-29T15:12:34.522Z,4.60
2017-12-29T15:15:02.042Z,4.50
2017-12-29T15:17:29.588Z,4.50
2017-12-29T15:19:57.107Z,4.50
2017-12-29T15:22:24.667Z,4.50
2017-12-29T15:24:52.219Z,4.40
2017-12-29T15:27:20.505Z,4.20
2017-12-29T15:29:48.058Z,4.20
2017-12-29T15:32:16.349Z,4.20
2017-12-29T15:34:45.830Z,4.20
2017-12-29T15:37:14.112Z,4.20
2017-12-29T15:39:44.407Z,4.00
2017-12-29T15:42:12.882Z,4.00
2017-12-29T15:44:40.431Z,3.80
2017-12-29T15:47:07.954Z,3.80
2017-12-29T15:49:35.466Z,3.80
2017-12-29T15:52:03.022Z,3.80
2017-12-29T15:54:30.538Z,3.90
2017-12-29T15:56:59.071Z,3.90
2017-12-29T15:59:26.591Z,3.90
2017-12-29T16:01:58.971Z,4.00
2017-12-29T16:04:26.481Z,3.90
2017-12-29T16:06:54.791Z,4.00
2017-12-29T16:09:22.343Z,4.00
2017-12-29T16:11:49.886Z,4.10
2017-12-29T16:14:17.402Z,4.10
2017-12-29T16:16:46.850Z,4.10
2017-12-29T16:19:15.350Z,4.10
2017-12-29T16:21:42.876Z,4.10
2017-12-29T16:24:10.423Z,4.20
2017-12-29T16:26:38.886Z,4.30
2017-12-29T16:29:06.432Z,4.30
2017-12-29T16:31:34.951Z,4.30
2017-12-29T16:34:03.265Z,4.40
2017-12-29T16:36:30.787Z,4.40
2017-12-29T16:38:58.322Z,4.40
2017-12-29T16:41:25.835Z,4.50
2017-12-29T16:43:53.376Z,4.50
2017-12-29T16:46:20.910Z,4.60
2017-12-29T16:48:49.191Z,4.50
2017-12-29T16:51:17.532Z,4.50
2017-12-29T16:53:46.022Z,4.40
2017-12-29T16:56:13.578Z,4.40
2017-12-29T16:58:41.099Z,4.40
2017-12-29T17:01:08.711Z,4.30
2017-12-29T17:03:36.560Z,4.20
2017-12-29T17:06:04.668Z,4.30
2017-12-29T17:08:33.082Z,4.40
2017-12-29T17:11:01.051Z,4.30
2017-12-29T17:13:28.879Z,4.40
2017-12-29T17:15:57.044Z,4.40
2017-12-29T17:18:24.962Z,4.60
2017-12-29T17:20:52.810Z,4.70
2017-12-29T17:23:20.355Z,4.70
2017-12-29T17:25:47.914Z,4.70
2017-12-29T17:28:15.477Z,4.70
2017-12-29T17:30:43.970Z,4.80
2017-12-29T17:33:11.515Z,4.90
2017-12-29T17:35:39.038Z,4.90
2017-12-29T17:38:06.584Z,4.90
2017-12-29T17:40:34.111Z,4.90
2017-12-29T17:43:01.656Z,4.80
2017-12-29T17:45:29.222Z,4.80
2017-12-29T17:47:56.780Z,4.80
2017-12-29T17:50:24.381Z,4.80
2017-12-29T17:52:51.910Z,4.80
2017-12-29T17:55:19.462Z,4.90
2017-12-29T17:57:46.999Z,4.90
2017-12-29T18:00:14.547Z,4.80
2017-12-29T18:02:42.849Z,4.90
2017-12-29T18:05:11.334Z,4.90
2017-12-29T18:07:38.846Z,5.00
2017-12-29T18:10:06.553Z,4.90
2017-12-29T18:12:34.126Z,4.90
2017-12-29T18:15:02.626Z,4.90
2017-12-29T18:17:30.171Z,5.00
2017-12-29T18:19:57.688Z,5.00
2017-12-29T18:22:25.247Z,4.90
2017-12-29T18:24:52.774Z,4.90
2017-12-29T18:27:20.717Z,4.90
2017-12-29T18:29:48.231Z,4.80
2017-12-29T18:32:15.759Z,4.80
2017-12-29T18:34:43.306Z,4.70
2017-12-29T18:37:10.960Z,4.70
2017-12-29T18:39:38.538Z,4.80
2017-12-29T18:42:06.064Z,4.90
2017-12-29T18:44:35.562Z,4.90
2017-12-29T18:47:03.082Z,4.80
2017-12-29T18:49:31.710Z,4.90
2017-12-29T18:51:59.251Z,5.00
2017-12-29T18:54:26.767Z,5.00
2017-12-29T18:56:54.338Z,5.00
2017-12-29T18:59:22.628Z,5.00
2017-12-29T19:01:50.948Z,5.00
2017-12-29T19:04:18.461Z,5.10
2017-12-29T19:06:46.780Z,5.10
2017-12-29T19:09:14.303Z,5.10
2017-12-29T19:11:41.857Z,5.10
2017-12-29T19:14:09.387Z,5.20
2017-12-29T19:16:36.915Z,5.10
2017-12-29T19:19:04.748Z,5.10
2017-12-29T19:21:32.266Z,5.10
2017-12-29T19:23:59.808Z,5.10
2017-12-29T19:26:27.331Z,5.20
2017-12-29T19:28:54.879Z,5.10
2017-12-29T19:31:23.362Z,5.20
2017-12-29T19:33:50.913Z,5.20
2017-12-29T19:36:18.432Z,5.20
2017-12-29T19:38:45.954Z,5.20
2017-12-29T19:41:14.454Z,5.20
2017-12-29T19:43:41.972Z,5.20
2017-12-29T19:46:09.518Z,5.20
2017-12-29T19:48:37.801Z,5.30
2017-12-29T19:51:06.355Z,5.30
2017-12-29T19:53:34.650Z,5.40
2017-12-29T19:56:04.181Z,5.40
2017-12-29T19:58:31.694Z,5.40
2017-12-29T20:01:00.206Z,5.40
2017-12-29T20:03:27.722Z,5.40
2017-12-29T20:05:55.235Z,5.40
2017-12-29T20:08:22.784Z,5.40
2017-12-29T20:10:51.287Z,5.40
2017-12-29T20:13:20.766Z,5.30
2017-12-29T20:15:48.317Z,5.40
2017-12-29T20:18:15.866Z,5.40
2017-12-29T20:20:44.173Z,5.40
2017-12-29T20:23:13.684Z,5.40
2017-12-29T20:25:41.329Z,5.40
2017-12-29T20:28:08.851Z,5.30
2017-12-29T20:30:36.398Z,5.40
2017-12-29T20:33:03.918Z,5.30
2017-12-29T20:35:31.504Z,5.30
2017-12-29T20:37:59.024Z,5.30
2017-12-29T20:40:26.568Z,5.20
2017-12-29T20:42:54.851Z,5.20
2017-12-29T20:45:22.401Z,5.20
2017-12-29T20:47:49.951Z,5.10
2017-12-29T20:50:17.498Z,5.20
2017-12-29T20:52:45.007Z,5.20
2017-12-29T20:55:13.285Z,5.20
2017-12-29T20:57:41.355Z,5.20
2017-12-29T21:00:09.722Z,5.10
2017-12-29T21:02:37.301Z,5.10
2017-12-29T21:05:04.880Z,5.10
2017-12-29T21:07:32.497Z,5.00
2017-12-29T21:10:01.238Z,5.20
2017-12-29T21:12:28.837Z,5.20
2017-12-29T21:14:57.440Z,5.40
2017-12-29T21:17:25.371Z,5.40
2017-12-29T21:19:53.173Z,5.40
2017-12-29T21:22:21.764Z,5.30
2017-12-29T21:24:51.466Z,5.30
2017-12-29T21:27:19.997Z,5.40
2017-12-29T21:29:49.553Z,5.40
2017-12-29T21:32:17.418Z,5.40
2017-12-29T21:34:45.009Z,5.50
2017-12-29T21:37:12.849Z,5.50
2017-12-29T21:39:40.412Z,5.50
2017-12-29T21:42:07.995Z,5.60
2017-12-29T21:44:35.555Z,5.60
2017-12-29T21:47:03.083Z,5.60
2017-12-29T21:49:30.778Z,5.60
2017-12-29T21:51:58.393Z,5.60
2017-12-29T21:54:26.207Z,5.60
2017-12-29T21:56:54.827Z,5.60
2017-12-29T21:59:23.466Z,5.70
2017-12-29T22:01:51.302Z,5.70
2017-12-29T22:04:19.082Z,5.70
2017-12-29T22:06:46.786Z,5.70
2017-12-29T22:09:15.270Z,5.70
2017-12-29T22:11:44.606Z,5.70
2017-12-29T22:14:13.127Z,5.70
2017-12-29T22:16:40.964Z,5.70
2017-12-29T22:19:08.616Z,5.70
2017-12-29T22:21:36.340Z,5.80
2017-12-29T22:24:04.150Z,5.70
2017-12-29T22:26:31.738Z,5.70
2017-12-29T22:29:00.161Z,5.80
2017-12-29T22:31:29.793Z,5.70
2017-12-29T22:33:57.607Z,5.70
2017-12-29T22:36:25.196Z,5.70
2017-12-29T22:38:53.631Z,5.70
2017-12-29T22:41:21.449Z,5.70
2017-12-29T22:43:49.950Z,5.80
2017-12-29T22:46:17.514Z,5.80
2017-12-29T22:48:45.165Z,5.70
2017-12-29T22:51:12.838Z,5.70
2017-12-29T22:53:40.468Z,5.80
2017-12-29T22:56:09.044Z,5.80
2017-12-29T22:58:36.776Z,5.80
2017-12-29T23:01:04.376Z,5.80
2017-12-29T23:03:31.993Z,5.80
2017-12-29T23:06:00.725Z,5.80
2017-12-29T23:08:30.227Z,5.80
2017-12-29T23:10:57.802Z,5.80
2017-12-29T23:13:25.669Z,5.80
2017-12-29T23:15:55.064Z,5.80
2017-12-29T23:18:24.678Z,5.90
2017-12-29T23:20:53.354Z,5.90
2017-12-29T23:23:22.942Z,5.80
2017-12-29T23:25:51.059Z,5.80
2017-12-29T23:28:18.615Z,5.90
2017-12-29T23:30:46.505Z,5.90
2017-12-29T23:33:14.148Z,5.80
2017-12-29T23:35:42.042Z,5.80
2017-12-29T23:38:09.571Z,5.80
2017-12-29T23:40:38.091Z,5.90
2017-12-29T23:43:05.904Z,5.90
2017-12-29T23:45:33.553Z,5.90
2017-12-29T23:48:01.438Z,6.00
2017-12-29T23:50:29.034Z,6.00
2017-12-29T23:52:56.614Z,6.00
2017-12-29T23:55:24.950Z,6.00
2017-12-29T23:57:53.406Z,6.00
